Time;durP1;ratioP1;P1;durP2;ratioP2;P2;SDS_P1;SDS_P2;PMS_P1;PMS_P2;Temp;Humidity;BMP_temperature;BMP_pressure;BME280_temperature;BME280_humidity;BME280_pressure;Samples;Min_cycle;Max_cycle;Signal;HPM_P1;HPM_P2
2021/05/15 00:01:38;;;;;;;12.18;4.90;;;;;;;22.49;35.72;100063.81;4955406;29;20038;-80
2021/05/15 00:04:05;;;;;;;16.27;5.53;;;;;;;22.45;35.65;100057.50;4955253;28;20513;-81
2021/05/15 00:06:31;;;;;;;11.52;5.32;;;;;;;22.53;35.61;100059.03;4954172;29;20402;-81
2021/05/15 00:08:57;;;;;;;11.20;4.85;;;;;;;22.57;35.67;100064.56;4954980;28;20043;-80
2021/05/15 00:11:23;;;;;;;10.80;5.40;;;;;;;22.54;35.67;100055.03;4955477;28;20066;-78
2021/05/15 00:13:49;;;;;;;10.77;4.50;;;;;;;22.41;35.81;100062.31;4955079;28;20023;-80
2021/05/15 00:16:15;;;;;;;12.30;5.28;;;;;;;22.50;35.71;100050.69;4955096;28;20042;-80
2021/05/15 00:18:41;;;;;;;10.23;4.75;;;;;;;22.49;35.59;100049.91;4955159;28;20106;-80
2021/05/15 00:21:08;;;;;;;10.25;5.55;;;;;;;22.50;35.49;100053.47;4955087;29;20058;-81
2021/05/15 00:23:34;;;;;;;8.90;3.80;;;;;;;22.52;35.36;100046.31;4955133;28;20031;-80
2021/05/15 00:26:00;;;;;;;8.45;3.92;;;;;;;22.50;35.62;100048.69;4955033;28;20027;-81
2021/05/15 00:28:27;;;;;;;9.45;4.55;;;;;;;22.48;35.50;100042.75;4954911;29;20082;-81
2021/05/15 00:30:53;;;;;;;7.50;3.72;;;;;;;22.47;35.71;100034.81;4955077;28;20506;-81
2021/05/15 00:33:19;;;;;;;7.85;3.55;;;;;;;22.63;35.43;100037.84;4954846;28;20042;-78
2021/05/15 00:35:44;;;;;;;13.30;3.85;;;;;;;22.47;35.56;100024.47;4955041;29;20027;-80
2021/05/15 00:38:11;;;;;;;9.75;3.88;;;;;;;22.69;35.14;100028.66;4954884;29;20106;-80
2021/05/15 00:40:37;;;;;;;7.85;3.00;;;;;;;22.48;35.61;100023.28;4953184;28;20398;-80
2021/05/15 00:43:05;;;;;;;6.55;2.72;;;;;;;22.37;35.88;100020.59;4954885;28;20027;-80
2021/05/15 00:45:31;;;;;;;8.93;3.72;;;;;;;22.31;35.98;100016.66;4954953;28;20034;-80
2021/05/15 00:47:57;;;;;;;4.90;2.83;;;;;;;22.42;35.90;100008.22;4953586;29;20039;-80
2021/05/15 00:50:23;;;;;;;9.27;3.30;;;;;;;22.38;36.21;100001.91;4954849;29;20070;-79
2021/05/15 00:52:48;;;;;;;9.75;3.30;;;;;;;22.33;36.07;99980.06;4954756;29;20086;-81
2021/05/15 00:55:15;;;;;;;11.30;3.67;;;;;;;22.33;36.14;99971.72;4954873;28;20055;-81
2021/05/15 00:57:42;;;;;;;10.27;4.25;;;;;;;22.47;36.00;99977.16;4954821;28;20494;-80
2021/05/15 01:00:12;;;;;;;10.18;4.22;;;;;;;22.54;35.91;99977.09;4954709;28;20082;-81
2021/05/15 01:02:39;;;;;;;5.43;2.92;;;;;;;22.60;35.80;99975.44;4954855;28;20399;-78
2021/05/15 01:05:06;;;;;;;7.05;2.97;;;;;;;22.63;35.59;99971.81;4954862;28;20034;-80
2021/05/15 01:07:32;;;;;;;7.85;3.70;;;;;;;22.63;35.89;99971.03;4953036;29;20063;-79
2021/05/15 01:09:58;;;;;;;8.10;3.58;;;;;;;22.66;35.87;99979.34;4954682;29;20109;-81
2021/05/15 01:12:24;;;;;;;8.60;4.20;;;;;;;22.67;35.75;99978.16;4954634;28;20031;-80
2021/05/15 01:14:50;;;;;;;9.32;4.18;;;;;;;22.63;35.85;99968.25;4954681;28;20074;-81
2021/05/15 01:17:16;;;;;;;11.77;4.07;;;;;;;22.70;35.69;99966.19;4954731;29;20082;-81
2021/05/15 01:19:41;;;;;;;9.23;3.65;;;;;;;22.63;35.97;99952.34;4954688;28;20027;-78
2021/05/15 01:22:13;;;;;;;17.50;4.03;;;;;;;23.27;34.55;99945.22;4954469;29;20114;-81
2021/05/15 01:24:42;;;;;;;7.50;3.45;;;;;;;23.39;34.43;99946.69;4954437;28;20035;-80
2021/05/15 01:27:09;;;;;;;8.10;2.97;;;;;;;23.31;34.73;99948.78;4954346;28;20593;-82
2021/05/15 01:29:37;;;;;;;7.88;2.83;;;;;;;23.38;34.73;99945.09;4954360;28;20063;-80
2021/05/15 01:32:04;;;;;;;7.85;2.63;;;;;;;23.24;34.81;99946.88;4954471;28;20019;-81
2021/05/15 01:34:30;;;;;;;9.40;3.33;;;;;;;23.24;35.04;99943.28;4954341;28;20110;-79
2021/05/15 01:36:56;;;;;;;7.47;3.78;;;;;;;23.23;34.94;99945.28;4954320;28;20023;-80
2021/05/15 01:39:22;;;;;;;5.88;2.65;;;;;;;23.18;35.10;99934.59;4954380;29;20027;-80
2021/05/15 01:41:48;;;;;;;6.13;2.88;;;;;;;23.18;35.02;99936.59;4954259;29;20494;-80
2021/05/15 01:44:15;;;;;;;7.43;2.60;;;;;;;23.24;35.11;99935.72;4954334;28;20051;-81
2021/05/15 01:46:41;;;;;;;6.28;2.90;;;;;;;23.29;34.98;99933.69;4953635;28;20027;-81
2021/05/15 01:49:07;;;;;;;8.20;2.50;;;;;;;23.18;35.13;99936.59;4953528;29;20027;-80
2021/05/15 01:51:33;;;;;;;9.27;2.63;;;;;;;23.16;35.16;99927.88;4954192;28;20036;-79
2021/05/15 01:53:59;;;;;;;4.63;2.95;;;;;;;23.28;35.03;99926.53;4957430;29;20028;-79
2021/05/15 01:56:31;;;;;;;7.15;2.75;;;;;;;23.15;35.16;99921.50;4956402;29;20028;-81
2021/05/15 01:58:57;;;;;;;8.55;2.42;;;;;;;22.98;35.43;99917.75;4957618;28;20082;-80
2021/05/15 02:01:25;;;;;;;8.77;3.05;;;;;;;23.06;35.33;99918.47;4957558;28;20074;-79
2021/05/15 02:03:51;;;;;;;6.38;2.50;;;;;;;23.05;35.15;99916.06;4957544;28;20512;-79
2021/05/15 02:06:17;;;;;;;7.07;3.10;;;;;;;22.91;35.27;99917.84;4957459;28;20030;-81
2021/05/15 02:08:45;;;;;;;10.77;3.38;;;;;;;22.83;35.38;99912.75;4957226;28;20198;-81
2021/05/15 02:11:12;;;;;;;6.97;2.60;;;;;;;22.91;35.27;99905.91;4957454;28;20478;-80
2021/05/15 02:13:38;;;;;;;4.45;2.53;;;;;;;22.85;35.40;99913.94;4957441;28;20031;-81
2021/05/15 02:16:05;;;;;;;10.13;2.63;;;;;;;22.72;35.67;99910.06;4957129;29;20029;-80
2021/05/15 02:18:31;;;;;;;7.20;3.00;;;;;;;22.53;36.01;99905.91;4955961;29;20038;-81
2021/05/15 02:20:57;;;;;;;8.18;2.47;;;;;;;22.74;35.63;99904.09;4957244;28;20027;-81
2021/05/15 02:23:24;;;;;;;4.65;2.70;;;;;;;22.32;36.39;99903.34;4957442;28;20514;-81
2021/05/15 02:25:50;;;;;;;12.38;2.83;;;;;;;22.16;36.80;99901.13;4957142;28;20023;-79
2021/05/15 02:28:16;;;;;;;7.43;3.63;;;;;;;22.10;37.01;99899.97;4956929;28;20442;-79
2021/05/15 02:30:43;;;;;;;6.93;3.03;;;;;;;22.23;36.60;99900.28;4957018;28;20082;-80
2021/05/15 02:33:09;;;;;;;8.30;2.58;;;;;;;22.15;36.50;99892.00;4956901;28;20050;-80
2021/05/15 02:35:35;;;;;;;6.90;2.40;;;;;;;22.24;36.70;99891.50;4957061;28;20063;-81
2021/05/15 02:38:01;;;;;;;6.38;2.53;;;;;;;22.07;36.90;99892.44;4956984;28;20023;-78
2021/05/15 02:40:30;;;;;;;6.57;2.92;;;;;;;22.14;36.54;99887.63;4956791;28;20050;-81
2021/05/15 02:42:56;;;;;;;7.93;2.57;;;;;;;22.10;36.71;99880.50;4956967;28;20033;-79
2021/05/15 02:45:23;;;;;;;6.63;2.60;;;;;;;21.95;37.08;99874.25;4956753;28;20023;-80
2021/05/15 02:47:50;;;;;;;6.30;2.40;;;;;;;21.94;36.88;99872.69;4956730;28;20031;-80
2021/05/15 02:50:17;;;;;;;9.27;2.47;;;;;;;22.19;36.43;99868.91;4956653;28;20051;-78
2021/05/15 02:52:43;;;;;;;7.13;3.38;;;;;;;22.21;36.50;99872.06;4956625;28;20023;-80
2021/05/15 02:55:12;;;;;;;7.47;2.85;;;;;;;22.05;36.90;99867.00;4956862;28;20379;-78
2021/05/15 02:57:38;;;;;;;6.25;2.50;;;;;;;22.18;36.77;99865.31;4956199;28;20081;-80
2021/05/15 03:00:07;;;;;;;5.57;2.00;;;;;;;22.18;36.46;99851.41;4956450;28;20390;-80
2021/05/15 03:02:33;;;;;;;6.75;3.00;;;;;;;22.14;36.50;99851.47;4955280;28;20023;-78
2021/05/15 03:04:59;;;;;;;8.65;2.35;;;;;;;22.26;36.39;99854.91;4956051;28;20030;-80
2021/05/15 03:07:25;;;;;;;4.57;2.50;;;;;;;22.20;36.49;99851.00;4956121;28;20035;-80
2021/05/15 03:09:51;;;;;;;6.78;2.35;;;;;;;22.13;36.40;99847.06;4956456;28;20393;-78
2021/05/15 03:12:17;;;;;;;6.10;2.58;;;;;;;22.17;36.34;99857.41;4956269;28;20063;-79
2021/05/15 03:14:42;;;;;;;3.10;2.15;;;;;;;22.22;36.19;99843.03;4956242;28;20038;-79
2021/05/15 03:17:12;;;;;;;6.35;2.70;;;;;;;22.21;36.25;99842.22;4956248;29;20038;-78
2021/05/15 03:19:37;;;;;;;3.38;1.88;;;;;;;22.05;36.54;99845.53;4956248;28;20031;-80
2021/05/15 03:22:04;;;;;;;3.70;2.05;;;;;;;22.15;36.10;99841.91;4955982;29;20049;-80
2021/05/15 03:24:30;;;;;;;5.10;1.98;;;;;;;22.03;36.45;99830.47;4956155;28;20443;-80
2021/05/15 03:26:56;;;;;;;3.47;1.33;;;;;;;22.02;36.13;99832.47;4955988;28;20604;-80
2021/05/15 03:29:21;;;;;;;1.50;1.35;;;;;;;21.97;36.36;99837.69;4955863;29;20094;-80
2021/05/15 03:31:47;;;;;;;3.30;1.80;;;;;;;22.06;36.08;99832.41;4955931;29;20385;-80
2021/05/15 03:34:13;;;;;;;6.22;1.75;;;;;;;21.96;36.27;99828.56;4956000;28;20447;-78
2021/05/15 03:36:38;;;;;;;1.80;1.67;;;;;;;22.00;35.93;99818.19;4955747;29;20078;-81
2021/05/15 03:39:05;;;;;;;3.33;1.40;;;;;;;21.93;36.09;99826.59;4955637;29;20526;-80
2021/05/15 03:41:31;;;;;;;3.28;1.40;;;;;;;21.98;36.06;99823.34;4955829;28;20023;-80
2021/05/15 03:43:56;;;;;;;3.50;1.45;;;;;;;22.03;35.88;99822.13;4955694;28;20155;-79
2021/05/15 03:46:22;;;;;;;5.53;2.05;;;;;;;22.01;35.85;99821.75;4955652;28;20027;-79
2021/05/15 03:48:48;;;;;;;2.97;1.23;;;;;;;21.95;35.69;99813.06;4955458;29;20118;-80
2021/05/15 03:51:13;;;;;;;4.38;1.40;;;;;;;21.95;35.81;99807.50;4955634;29;20027;-79
2021/05/15 03:53:39;;;;;;;4.40;1.65;;;;;;;21.88;35.86;99807.56;4955516;28;20414;-78
2021/05/15 03:56:05;;;;;;;4.50;1.30;;;;;;;22.01;35.69;99811.44;4955081;29;20094;-80
2021/05/15 03:58:30;;;;;;;3.55;1.63;;;;;;;21.99;35.61;99805.50;4955328;28;20466;-80
2021/05/15 04:00:56;;;;;;;3.97;1.35;;;;;;;21.86;35.82;99799.66;4955356;29;20192;-80
2021/05/15 04:03:22;;;;;;;3.28;1.27;;;;;;;21.97;35.62;99798.75;4955525;28;20035;-81
2021/05/15 04:05:47;;;;;;;5.15;2.00;;;;;;;21.88;35.67;99790.88;4955347;29;20031;-78
2021/05/15 04:08:13;;;;;;;3.42;1.40;;;;;;;21.95;35.44;99792.81;4955055;29;20043;-79
2021/05/15 04:10:38;;;;;;;2.53;1.08;;;;;;;22.00;35.69;99790.38;4955054;29;20051;-80
2021/05/15 04:13:34;;;;;;;2.90;1.60;;;;;;;21.95;35.54;99790.03;4955172;29;20382;-80
2021/05/15 04:15:58;;;;;;;3.30;1.30;;;;;;;21.88;35.49;99783.34;4954357;28;20043;-78
2021/05/15 04:18:27;;;;;;;5.72;1.08;;;;;;;21.95;35.35;99784.47;4955170;29;20479;-79
2021/05/15 04:20:53;;;;;;;6.72;1.55;;;;;;;21.88;35.56;99788.09;4955104;28;20034;-80
2021/05/15 04:23:19;;;;;;;2.05;0.95;;;;;;;21.86;35.42;99782.19;4955118;28;20478;-80
2021/05/15 04:25:44;;;;;;;1.75;1.30;;;;;;;21.89;35.44;99773.78;4954957;29;20538;-78
2021/05/15 04:28:10;;;;;;;3.47;1.10;;;;;;;21.83;35.46;99783.00;4954863;29;20031;-78
2021/05/15 04:30:35;;;;;;;1.33;0.90;;;;;;;21.88;35.31;99777.78;4955004;29;20030;-80
2021/05/15 04:33:02;;;;;;;3.55;0.90;;;;;;;21.84;35.23;99773.47;4954747;29;20027;-78
2021/05/15 04:35:32;;;;;;;8.13;1.90;;;;;;;21.70;35.59;99776.38;4954724;28;20023;-78
2021/05/15 04:37:58;;;;;;;1.33;0.75;;;;;;;21.74;35.43;99774.34;4954879;29;20034;-78
2021/05/15 04:40:23;;;;;;;1.65;0.80;;;;;;;21.54;35.64;99777.72;4954305;28;20102;-81
2021/05/15 04:42:49;;;;;;;2.22;0.88;;;;;;;21.39;35.97;99773.47;4971052;28;20023;-81
2021/05/15 04:45:15;;;;;;;3.20;1.23;;;;;;;21.38;35.86;99769.09;4973999;28;20023;-80
2021/05/15 04:47:41;;;;;;;7.22;1.60;;;;;;;21.13;36.32;99771.25;4973940;28;20545;-79
2021/05/15 04:50:09;;;;;;;2.65;1.00;;;;;;;21.09;36.44;99767.72;4974043;28;20101;-81
2021/05/15 04:52:35;;;;;;;3.38;0.98;;;;;;;21.27;36.29;99771.97;4973950;28;20508;-81
2021/05/15 04:55:00;;;;;;;3.00;1.17;;;;;;;21.51;35.73;99761.84;4973995;28;20101;-81
2021/05/15 04:57:26;;;;;;;3.25;1.55;;;;;;;21.49;35.54;99771.81;4974113;28;20224;-78
2021/05/15 04:59:52;;;;;;;1.35;0.88;;;;;;;21.68;35.04;99757.31;4977323;28;20027;-81
2021/05/15 05:02:17;;;;;;;3.15;1.13;;;;;;;21.82;34.82;99759.16;4979350;28;20030;-83
2021/05/15 05:04:43;;;;;;;2.08;1.05;;;;;;;21.43;35.54;99763.09;4978311;28;20030;-81
2021/05/15 05:07:10;;;;;;;1.55;0.93;;;;;;;21.67;34.88;99757.72;4973866;28;20031;-81
2021/05/15 05:09:35;;;;;;;3.28;0.80;;;;;;;21.48;35.25;99762.69;4974235;28;20041;-80
2021/05/15 05:12:01;;;;;;;1.92;0.82;;;;;;;21.65;35.09;99755.38;4974054;28;20049;-78
2021/05/15 05:14:27;;;;;;;2.33;0.95;;;;;;;21.74;34.92;99758.44;4974079;28;20068;-80
2021/05/15 05:16:55;;;;;;;2.50;1.20;;;;;;;21.57;35.17;99748.31;4972863;28;20043;-81
2021/05/15 05:19:25;;;;;;;1.25;0.68;;;;;;;21.50;35.57;99759.47;4972776;28;20033;-81
2021/05/15 05:21:52;;;;;;;1.92;0.95;;;;;;;21.73;35.02;99756.88;4972828;28;20054;-82
2021/05/15 05:24:19;;;;;;;3.75;0.73;;;;;;;21.69;35.20;99750.56;4973261;28;20042;-79
2021/05/15 05:26:44;;;;;;;2.72;0.85;;;;;;;21.73;34.95;99758.88;4974105;28;20031;-81
2021/05/15 05:29:10;;;;;;;1.90;0.93;;;;;;;21.69;34.99;99745.00;4977379;28;20034;-78
2021/05/15 05:31:37;;;;;;;2.53;0.85;;;;;;;21.86;34.63;99746.03;4976495;28;20023;-81
2021/05/15 05:34:04;;;;;;;2.72;0.75;;;;;;;21.71;34.58;99742.59;4976417;28;20038;-81
2021/05/15 05:36:30;;;;;;;1.02;0.57;;;;;;;22.03;34.36;99736.69;4975959;28;20121;-80
2021/05/15 05:38:56;;;;;;;1.27;0.88;;;;;;;21.99;34.00;99735.97;4977439;28;20027;-81
2021/05/15 05:41:24;;;;;;;3.38;0.80;;;;;;;21.82;34.20;99731.34;4977403;28;20034;-79
2021/05/15 05:43:50;;;;;;;1.33;0.60;;;;;;;21.66;34.45;99733.91;4977367;28;20473;-80
2021/05/15 05:46:15;;;;;;;2.78;0.82;;;;;;;21.74;34.35;99729.84;4977447;28;20123;-77
2021/05/15 05:48:41;;;;;;;1.67;0.80;;;;;;;21.90;34.00;99724.53;4977254;28;20529;-81
2021/05/15 05:51:06;;;;;;;3.13;0.88;;;;;;;21.71;34.09;99730.69;4977150;28;20023;-79
2021/05/15 05:53:32;;;;;;;2.15;1.00;;;;;;;21.47;34.63;99733.31;4977096;28;20046;-81
2021/05/15 05:55:58;;;;;;;5.75;1.15;;;;;;;21.41;34.85;99732.16;4977309;28;20030;-80
2021/05/15 05:58:23;;;;;;;0.55;0.55;;;;;;;21.44;34.92;99730.53;4976925;28;20030;-79
2021/05/15 06:00:52;;;;;;;1.58;0.80;;;;;;;21.45;35.12;99735.69;4976769;28;20047;-79
2021/05/15 06:03:17;;;;;;;4.03;1.02;;;;;;;21.53;34.81;99731.63;4976912;28;20492;-80
2021/05/15 06:05:43;;;;;;;2.10;0.90;;;;;;;21.46;34.94;99728.13;4976855;28;20106;-79
2021/05/15 06:08:10;;;;;;;3.95;0.95;;;;;;;21.59;34.71;99732.78;4976445;28;20174;-81
2021/05/15 06:10:37;;;;;;;4.10;1.80;;;;;;;21.54;34.76;99722.13;4976835;28;20497;-80
2021/05/15 06:13:06;;;;;;;6.80;1.30;;;;;;;21.51;34.64;99728.50;4976745;28;20097;-80
2021/05/15 06:15:32;;;;;;;4.80;1.15;;;;;;;21.75;34.16;99723.09;4975579;28;20034;-80
2021/05/15 06:17:58;;;;;;;3.30;1.13;;;;;;;21.62;34.43;99724.84;4976540;28;20042;-79
2021/05/15 06:20:24;;;;;;;6.72;1.38;;;;;;;21.48;34.78;99721.00;4976626;28;20031;-79
2021/05/15 06:22:50;;;;;;;2.65;0.77;;;;;;;21.32;35.11;99723.53;4976547;28;20094;-80
2021/05/15 06:25:16;;;;;;;2.75;1.20;;;;;;;21.38;34.83;99718.28;4976507;28;20042;-80
2021/05/15 06:27:42;;;;;;;2.25;0.88;;;;;;;21.10;35.24;99731.22;4976334;28;20023;-80
2021/05/15 06:30:08;;;;;;;3.75;1.30;;;;;;;20.95;35.47;99722.19;4976566;28;20031;-80
2021/05/15 06:32:34;;;;;;;2.20;0.95;;;;;;;21.32;34.79;99709.63;4976289;28;20030;-81
2021/05/15 06:35:00;;;;;;;0.88;0.70;;;;;;;21.18;34.99;99713.28;4976485;28;20528;-80
2021/05/15 06:37:25;;;;;;;3.78;1.55;;;;;;;21.30;34.93;99706.44;4976198;28;20027;-78
2021/05/15 06:39:51;;;;;;;3.83;1.10;;;;;;;21.20;35.16;99704.53;4975612;28;20031;-78
2021/05/15 06:42:17;;;;;;;1.63;1.00;;;;;;;21.16;35.31;99710.13;4976212;28;20102;-78
2021/05/15 06:44:42;;;;;;;1.02;0.70;;;;;;;20.83;35.89;99708.78;4977507;28;20070;-79
2021/05/15 06:47:08;;;;;;;3.33;1.15;;;;;;;21.19;34.97;99706.53;4970485;28;20494;-79
2021/05/15 06:49:33;;;;;;;6.30;1.83;;;;;;;21.40;34.79;99700.03;4969537;28;20031;-78
2021/05/15 06:51:59;;;;;;;3.45;1.58;;;;;;;21.18;34.80;99695.84;4966249;28;20050;-88
2021/05/15 06:54:24;;;;;;;11.27;7.50;;;;;;;21.50;34.72;99701.91;4966538;28;20121;-84
2021/05/15 06:56:53;;;;;;;18.05;12.98;;;;;;;21.48;34.61;99698.75;4965327;28;20030;-85
2021/05/15 06:59:19;;;;;;;12.75;7.43;;;;;;;21.35;34.83;99697.69;4964693;28;20065;-82
2021/05/15 07:01:45;;;;;;;26.63;17.48;;;;;;;21.31;34.97;99691.34;4959755;28;20062;-86
2021/05/15 07:04:11;;;;;;;25.83;18.65;;;;;;;21.50;34.71;99688.00;4964842;28;20023;-81
2021/05/15 07:06:36;;;;;;;10.70;7.93;;;;;;;21.59;34.68;99691.09;4969795;28;20034;-86
2021/05/15 07:09:03;;;;;;;29.17;24.10;;;;;;;21.60;34.78;99686.31;4961902;28;20055;-80
2021/05/15 07:11:29;;;;;;;6.55;4.95;;;;;;;21.80;34.51;99680.94;4960709;28;20031;-80
2021/05/15 07:13:54;;;;;;;19.55;7.65;;;;;;;22.03;34.15;99680.28;4966153;28;20038;-83
2021/05/15 07:16:20;;;;;;;6.60;3.38;;;;;;;21.91;34.58;99675.25;4961766;28;20027;-79
2021/05/15 07:18:45;;;;;;;5.15;2.15;;;;;;;22.09;34.32;99687.00;4963270;28;20497;-83
2021/05/15 07:21:11;;;;;;;3.20;2.10;;;;;;;22.43;33.69;99682.16;4961975;28;20026;-81
2021/05/15 07:23:36;;;;;;;4.10;2.05;;;;;;;22.38;33.55;99682.63;4964507;28;20092;-81
2021/05/15 07:26:05;;;;;;;7.35;2.88;;;;;;;22.58;33.17;99687.50;4964035;28;20031;-83
2021/05/15 07:28:30;;;;;;;6.15;1.77;;;;;;;22.52;33.58;99683.63;4963659;28;20027;-83
2021/05/15 07:30:56;;;;;;;6.22;1.63;;;;;;;22.64;33.27;99686.63;4963578;28;20035;-83
2021/05/15 07:33:22;;;;;;;5.22;2.55;;;;;;;22.65;33.43;99677.06;4966421;28;20042;-85
2021/05/15 07:35:47;;;;;;;3.28;1.45;;;;;;;23.02;33.08;99675.31;4962619;28;20042;-86
2021/05/15 07:38:13;;;;;;;2.60;1.10;;;;;;;23.18;32.93;99678.25;4959828;28;20423;-83
2021/05/15 07:40:38;;;;;;;6.78;2.97;;;;;;;22.96;33.54;99674.22;4966675;28;20027;-81
2021/05/15 07:43:04;;;;;;;5.00;1.63;;;;;;;22.71;34.13;99674.59;4967265;28;20174;-81
2021/05/15 07:45:31;;;;;;;4.22;1.30;;;;;;;22.37;34.93;99678.28;4962779;28;20058;-79
2021/05/15 07:47:57;;;;;;;5.50;2.80;;;;;;;22.54;34.59;99668.09;4968767;28;20493;-79
2021/05/15 07:50:23;;;;;;;3.95;2.17;;;;;;;22.94;33.73;99673.88;4962780;28;20026;-80
2021/05/15 07:52:48;;;;;;;6.97;5.60;;;;;;;22.85;34.16;99671.63;4962681;28;20023;-80
2021/05/15 07:55:14;;;;;;;4.22;2.42;;;;;;;22.83;34.35;99673.25;4961929;28;20038;-84
2021/05/15 07:57:40;;;;;;;6.05;4.85;;;;;;;22.75;34.71;99669.78;4958341;28;20101;-76
2021/05/15 08:00:06;;;;;;;4.47;2.55;;;;;;;22.68;34.98;99670.66;4963144;28;20027;-83
2021/05/15 08:02:32;;;;;;;8.38;3.95;;;;;;;22.84;34.73;99670.03;4967148;28;20126;-76
2021/05/15 08:04:58;;;;;;;14.38;10.07;;;;;;;22.54;35.43;99664.53;4965424;28;20517;-84
2021/05/15 08:07:24;;;;;;;6.38;4.30;;;;;;;22.57;35.27;99672.81;4963431;28;20434;-86
2021/05/15 08:09:50;;;;;;;10.70;4.93;;;;;;;22.84;34.89;99672.81;4964741;28;20096;-82
2021/05/15 08:12:16;;;;;;;5.25;3.63;;;;;;;22.80;35.29;99672.06;4964686;28;20062;-81
2021/05/15 08:14:41;;;;;;;3.83;1.83;;;;;;;22.92;35.09;99673.50;4963264;28;20448;-85
2021/05/15 08:17:07;;;;;;;6.13;2.20;;;;;;;22.93;35.12;99673.09;4962242;28;20038;-85
2021/05/15 08:19:33;;;;;;;5.43;1.92;;;;;;;22.77;35.63;99669.34;4961598;28;20038;-84
2021/05/15 08:21:58;;;;;;;3.28;1.52;;;;;;;22.94;34.99;99669.09;4966279;28;20106;-84
2021/05/15 08:24:24;;;;;;;5.25;1.95;;;;;;;22.83;35.31;99668.47;4971554;28;20027;-86
2021/05/15 08:26:51;;;;;;;5.13;1.88;;;;;;;22.96;34.95;99672.22;4964814;28;20038;-86
2021/05/15 08:29:18;;;;;;;3.88;1.70;;;;;;;23.01;34.86;99668.19;4967476;28;20129;-85
2021/05/15 08:31:44;;;;;;;3.72;1.50;;;;;;;23.03;34.95;99668.53;4968389;28;20023;-86
2021/05/15 08:34:10;;;;;;;3.72;1.90;;;;;;;23.09;34.99;99674.44;4974110;28;20042;-83
2021/05/15 08:36:35;;;;;;;7.28;2.25;;;;;;;23.18;34.88;99669.88;4968288;28;20026;-76
2021/05/15 08:39:01;;;;;;;7.28;2.40;;;;;;;23.02;34.99;99666.19;4968550;28;20062;-84
2021/05/15 08:41:31;;;;;;;3.20;1.52;;;;;;;22.67;36.07;99674.66;4963358;28;20034;-79
2021/05/15 08:44:01;;;;;;;3.83;1.60;;;;;;;22.67;35.90;99671.06;4961601;28;20106;-79
2021/05/15 08:46:28;;;;;;;10.02;2.42;;;;;;;22.59;36.09;99667.59;4962839;28;20375;-85
2021/05/15 08:48:57;;;;;;;8.88;2.03;;;;;;;22.16;37.10;99670.22;4965639;28;20610;-86
2021/05/15 08:51:24;;;;;;;6.45;2.10;;;;;;;22.20;37.19;99668.16;4960616;28;20118;-86
2021/05/15 08:53:50;;;;;;;7.35;1.67;;;;;;;22.35;37.00;99654.84;4967295;28;20031;-86
2021/05/15 08:58:14;;;;;;;4.95;1.42;;;;;;;22.55;36.81;99663.31;5110351;27;20381;-84
2021/05/15 09:00:43;;;;;;;3.53;1.45;;;;;;;22.92;36.34;99660.38;5097652;28;20031;-80
2021/05/15 09:03:12;;;;;;;2.83;1.05;;;;;;;22.98;36.02;99658.69;5096520;28;20044;-85
2021/05/15 09:05:41;;;;;;;4.25;1.35;;;;;;;22.71;36.06;99666.25;5095050;28;20114;-87
2021/05/15 09:08:11;;;;;;;5.57;1.88;;;;;;;22.94;35.95;99665.50;5099111;28;20088;-86
2021/05/15 09:10:42;;;;;;;8.35;2.63;;;;;;;22.65;36.45;99659.56;5104146;28;20025;-84
2021/05/15 09:13:14;;;;;;;8.43;2.50;;;;;;;23.12;35.53;99652.06;5098794;28;20028;-87
2021/05/15 09:15:44;;;;;;;18.92;3.63;;;;;;;23.15;35.35;99662.38;5099092;28;20142;-83
2021/05/15 09:18:13;;;;;;;4.38;3.30;;;;;;;23.12;35.47;99666.00;5100128;28;20025;-83
2021/05/15 09:20:39;;;;;;;17.52;5.07;;;;;;;23.25;35.07;99661.41;5096775;28;20020;-86
2021/05/15 09:23:20;;;;;;;9.30;2.50;;;;;;;23.37;34.39;99662.00;5105126;28;20024;-84
2021/05/15 09:25:58;;;;;;;5.72;2.20;;;;;;;22.94;34.92;99655.16;5086544;28;20016;-83
2021/05/15 09:28:37;;;;;;;20.17;4.85;;;;;;;23.27;34.25;99652.59;5098032;28;20024;-76
2021/05/15 09:31:18;;;;;;;15.35;3.65;;;;;;;23.43;34.17;99649.16;5095000;28;20065;-83
2021/05/15 09:33:48;;;;;;;5.93;1.60;;;;;;;23.83;33.62;99652.78;5102543;28;20393;-84
2021/05/15 09:36:19;;;;;;;4.85;1.58;;;;;;;23.34;34.23;99654.47;5098408;28;20063;-86
2021/05/15 09:38:46;;;;;;;26.08;4.45;;;;;;;23.66;33.68;99648.34;5099263;28;20019;-79
2021/05/15 09:41:12;;;;;;;20.98;4.55;;;;;;;23.57;33.52;99648.88;5102314;28;20504;-78
2021/05/15 09:43:37;;;;;;;6.85;2.33;;;;;;;23.19;34.24;99648.38;5097257;28;20020;-85
2021/05/15 09:46:04;;;;;;;10.27;4.03;;;;;;;23.14;34.01;99646.88;5098250;28;20118;-84
2021/05/15 09:48:36;;;;;;;5.43;2.20;;;;;;;23.36;33.73;99643.72;5097525;28;20028;-85
2021/05/15 09:51:17;;;;;;;11.52;6.68;;;;;;;23.10;34.25;99637.00;5083713;28;20023;-82
2021/05/15 09:53:43;;;;;;;6.72;3.42;;;;;;;23.37;34.15;99636.91;5108722;28;20020;-81
2021/05/15 09:56:09;;;;;;;9.48;6.55;;;;;;;23.23;34.55;99638.75;5109321;28;20093;-83
2021/05/15 09:58:35;;;;;;;9.05;4.03;;;;;;;23.41;34.70;99632.84;5106148;28;20420;-83
2021/05/15 10:01:01;;;;;;;7.88;3.25;;;;;;;23.04;35.28;99633.91;5094428;28;20447;-82
2021/05/15 10:03:28;;;;;;;19.92;7.20;;;;;;;23.06;35.22;99634.28;5096380;28;20091;-85
2021/05/15 10:06:03;;;;;;;18.48;9.30;;;;;;;23.09;35.19;99638.22;5090573;28;20016;-85
2021/05/15 10:08:30;;;;;;;25.08;14.05;;;;;;;23.17;34.64;99632.09;5093851;28;20050;-85
2021/05/15 10:10:56;;;;;;;23.55;12.80;;;;;;;23.34;34.72;99624.59;5081706;28;20096;-82
2021/05/15 10:13:22;;;;;;;30.65;14.23;;;;;;;23.60;34.75;99642.47;5081962;28;20055;-78
2021/05/15 10:15:48;;;;;;;31.20;13.75;;;;;;;23.48;34.70;99629.91;5074261;28;20032;-79
2021/05/15 10:18:15;;;;;;;18.05;3.72;;;;;;;23.26;35.00;99637.88;5074913;28;20399;-82
2021/05/15 10:20:41;;;;;;;3.63;1.60;;;;;;;23.63;33.98;99633.25;5092382;28;20024;-85
2021/05/15 10:23:19;;;;;;;4.78;1.48;;;;;;;23.61;34.22;99632.09;5095707;28;20031;-84
2021/05/15 10:25:45;;;;;;;5.43;1.55;;;;;;;23.83;33.81;99629.69;5095707;28;20489;-84
2021/05/15 10:28:11;;;;;;;5.93;1.67;;;;;;;23.98;33.37;99636.53;5095410;28;20058;-81
2021/05/15 10:30:37;;;;;;;8.45;2.00;;;;;;;23.23;34.73;99633.16;5095581;28;20044;-83
2021/05/15 10:33:07;;;;;;;7.93;1.17;;;;;;;23.59;34.65;99635.31;5095407;28;20050;-86
2021/05/15 10:35:41;;;;;;;2.45;1.25;;;;;;;23.41;35.36;99634.84;5095738;28;20024;-80
2021/05/15 10:38:13;;;;;;;12.00;2.03;;;;;;;23.10;35.70;99631.41;5095244;28;20032;-84
2021/05/15 10:40:52;;;;;;;6.45;1.63;;;;;;;23.41;35.01;99634.84;5095057;28;20477;-80
2021/05/15 10:43:35;;;;;;;14.20;3.17;;;;;;;23.31;35.18;99633.03;5086460;28;20378;-80
2021/05/15 10:46:17;;;;;;;10.82;1.80;;;;;;;23.19;34.94;99635.22;5074736;28;20490;-77
2021/05/15 10:48:55;;;;;;;4.28;1.20;;;;;;;22.85;36.16;99638.22;5074541;28;20056;-79
2021/05/15 10:51:40;;;;;;;3.03;1.23;;;;;;;22.96;35.98;99636.03;5074736;28;20035;-80
2021/05/15 10:54:07;;;;;;;6.10;1.45;;;;;;;23.03;35.75;99623.19;5074708;28;20087;-79
2021/05/15 10:56:33;;;;;;;6.55;1.60;;;;;;;23.03;35.68;99621.19;5074109;28;20044;-79
2021/05/15 10:59:11;;;;;;;9.00;2.15;;;;;;;22.71;36.45;99621.69;5074512;28;20068;-79
2021/05/15 11:01:43;;;;;;;7.03;1.58;;;;;;;22.66;36.59;99624.94;5074402;28;20483;-80
2021/05/15 11:04:23;;;;;;;12.27;1.92;;;;;;;23.13;35.68;99617.44;5074390;28;20029;-79
2021/05/15 11:07:22;;;;;;;6.43;2.38;;;;;;;22.59;36.72;99623.06;5074342;28;20079;-76
2021/05/15 11:09:56;;;;;;;10.27;1.98;;;;;;;22.70;36.62;99620.91;5069858;28;20035;-77
2021/05/15 11:12:23;;;;;;;7.07;2.10;;;;;;;22.86;36.12;99619.50;5074421;28;20028;-77
2021/05/15 11:14:50;;;;;;;10.93;3.40;;;;;;;22.91;35.84;99605.88;5072969;28;20028;-82
2021/05/15 11:17:29;;;;;;;14.57;4.55;;;;;;;22.78;36.27;99612.44;5073845;28;20031;-76
2021/05/15 11:20:04;;;;;;;18.27;6.35;;;;;;;22.78;35.76;99610.44;5072374;28;20020;-77
2021/05/15 11:22:39;;;;;;;13.70;10.13;;;;;;;22.86;35.66;99609.16;5073061;28;20022;-77
2021/05/15 11:25:15;;;;;;;16.88;8.52;;;;;;;22.83;35.66;99609.97;5072998;28;20111;-79
2021/05/15 11:27:49;;;;;;;9.90;3.85;;;;;;;23.00;35.46;99610.13;5071511;28;20036;-77
2021/05/15 11:30:29;;;;;;;11.63;7.95;;;;;;;23.03;34.89;99606.47;5072022;28;20104;-80
2021/05/15 11:33:10;;;;;;;7.13;3.40;;;;;;;23.18;34.34;99605.00;5071217;28;20082;-82
2021/05/15 11:35:38;;;;;;;7.97;3.88;;;;;;;23.10;34.69;99609.13;5072260;28;20024;-82